createdAt,value
2019-04-03T00:03:14.704Z,13.49
2019-04-03T00:08:16.353Z,13.49
2019-04-03T00:13:17.897Z,13.49
2019-04-03T00:18:19.430Z,13.52
2019-04-03T00:23:22.364Z,13.52
2019-04-03T00:28:24.490Z,13.52
2019-04-03T00:33:26.007Z,13.47
2019-04-03T00:38:27.647Z,13.40
2019-04-03T00:43:29.319Z,13.36
2019-04-03T00:48:30.987Z,13.36
2019-04-03T00:53:32.523Z,13.33
2019-04-03T00:58:39.216Z,13.31
2019-04-03T01:03:41.454Z,13.29
2019-04-03T01:08:43.100Z,13.24
2019-04-03T01:13:44.796Z,13.20
2019-04-03T01:18:46.389Z,13.18
2019-04-03T01:23:47.919Z,13.20
2019-04-03T01:28:49.415Z,13.18
2019-04-03T01:33:51.123Z,13.17
2019-04-03T01:38:52.652Z,13.13
2019-04-03T01:43:54.454Z,13.08
2019-04-03T01:48:56.754Z,12.95
2019-04-03T01:54:02.370Z,12.88
2019-04-03T01:59:03.258Z,12.91
2019-04-03T02:04:05.243Z,12.91
2019-04-03T02:09:08.592Z,12.85
2019-04-03T02:14:10.251Z,12.81
2019-04-03T02:19:11.785Z,12.75
2019-04-03T02:24:13.356Z,12.71
2019-04-03T02:29:14.978Z,12.67
2019-04-03T02:34:16.829Z,12.59
2019-04-03T02:39:18.386Z,12.53
2019-04-03T02:44:20.118Z,12.53
2019-04-03T02:49:22.293Z,12.53
2019-04-03T02:54:28.848Z,12.51
2019-04-03T02:59:30.434Z,12.45
2019-04-03T03:04:32.048Z,12.41
2019-04-03T03:09:33.891Z,12.37
2019-04-03T03:14:38.137Z,12.35
2019-04-03T03:19:39.348Z,12.06
2019-04-03T03:24:42.138Z,11.92
2019-04-03T03:29:44.124Z,11.87
2019-04-03T03:34:56.856Z,11.82
2019-04-03T03:39:50.658Z,11.76
2019-04-03T03:44:53.103Z,11.72
2019-04-03T03:49:55.101Z,11.76
2019-04-03T03:54:57.024Z,11.76
2019-04-03T03:59:59.142Z,11.77
2019-04-03T04:05:01.609Z,11.70
2019-04-03T04:10:04.382Z,11.65
2019-04-03T04:15:06.482Z,11.68
2019-04-03T04:20:08.502Z,11.66
2019-04-03T04:25:10.227Z,11.62
2019-04-03T04:30:14.358Z,11.61
2019-04-03T04:35:15.929Z,11.60
2019-04-03T04:40:17.460Z,11.60
2019-04-03T04:45:19.144Z,11.60
2019-04-03T04:50:20.980Z,11.45
2019-04-03T04:55:22.684Z,11.28
2019-04-03T05:00:24.357Z,11.25
2019-04-03T05:05:27.192Z,11.29
2019-04-03T05:10:29.413Z,11.35
2019-04-03T05:15:31.204Z,11.37
2019-04-03T05:20:33.396Z,11.41
2019-04-03T05:25:34.918Z,11.47
2019-04-03T05:30:37.891Z,11.51
2019-04-03T05:35:39.992Z,11.59
2019-04-03T05:40:41.570Z,11.64
2019-04-03T05:45:43.206Z,11.71
2019-04-03T05:50:45.146Z,11.79
2019-04-03T05:55:46.761Z,11.82
2019-04-03T06:00:48.359Z,11.90
2019-04-03T06:05:50.088Z,11.96
2019-04-03T06:10:51.897Z,12.00
2019-04-03T06:15:53.763Z,12.02
2019-04-03T06:20:55.810Z,11.99
2019-04-03T06:26:00.724Z,11.98
2019-04-03T06:31:01.046Z,12.04
2019-04-03T06:36:02.880Z,12.14
2019-04-03T06:41:04.437Z,12.19
2019-04-03T06:46:05.989Z,12.23
2019-04-03T06:51:08.263Z,12.25
2019-04-03T06:56:10.459Z,12.30
2019-04-03T07:01:12.638Z,12.36
2019-04-03T07:06:14.756Z,12.45
2019-04-03T07:11:23.174Z,12.45
2019-04-03T07:16:20.402Z,12.49
2019-04-03T07:21:22.729Z,12.57
2019-04-03T07:26:25.035Z,12.68
2019-04-03T07:31:26.672Z,12.77
2019-04-03T07:36:28.209Z,12.87
2019-04-03T07:41:29.767Z,12.98
2019-04-03T07:46:31.511Z,13.13
2019-04-03T07:51:34.734Z,13.30
2019-04-03T07:56:36.272Z,13.38
2019-04-03T08:01:40.323Z,13.56
2019-04-03T08:06:41.411Z,13.64
2019-04-03T08:11:42.935Z,13.68
2019-04-03T08:16:45.930Z,13.76
2019-04-03T08:21:48.322Z,13.87
2019-04-03T08:26:51.975Z,13.95
2019-04-03T08:31:53.673Z,14.18
2019-04-03T08:36:55.296Z,14.29
2019-04-03T08:41:57.288Z,14.45
2019-04-03T08:46:58.996Z,14.73
2019-04-03T08:52:00.539Z,14.80
2019-04-03T08:57:02.338Z,14.93
2019-04-03T09:02:03.999Z,15.08
2019-04-03T09:07:05.646Z,15.24
2019-04-03T09:12:07.995Z,15.26
2019-04-03T09:17:09.750Z,15.34
2019-04-03T09:22:11.809Z,15.41
2019-04-03T09:27:13.549Z,15.47
2019-04-03T09:32:15.081Z,15.54
2019-04-03T09:37:18.172Z,15.69
2019-04-03T09:42:21.338Z,15.72
2019-04-03T09:47:23.422Z,15.71
2019-04-03T09:52:37.378Z,15.78
2019-04-03T09:57:30.186Z,15.89
2019-04-03T10:02:32.064Z,15.86
2019-04-03T10:07:36.332Z,15.88
2019-04-03T10:12:37.224Z,15.85
2019-04-03T10:17:39.622Z,15.76
2019-04-03T10:22:41.706Z,15.63
2019-04-03T10:27:43.724Z,15.76
2019-04-03T10:32:45.704Z,16.15
2019-04-03T10:37:47.636Z,16.23
2019-04-03T10:42:49.342Z,16.25
2019-04-03T10:47:50.951Z,16.30
2019-04-03T10:52:52.572Z,16.46
2019-04-03T10:57:54.219Z,16.66
2019-04-03T11:02:56.265Z,16.70
2019-04-03T11:07:58.150Z,16.65
2019-04-03T11:13:00.896Z,16.62
2019-04-03T11:18:03.858Z,16.57
2019-04-03T11:23:08.160Z,16.77
2019-04-03T11:28:09.348Z,17.20
2019-04-03T11:33:13.423Z,18.56
2019-04-03T11:38:24.012Z,20.23
2019-04-03T11:43:18.084Z,21.34
2019-04-03T11:48:19.727Z,22.06
2019-04-03T11:53:21.633Z,22.08
2019-04-03T11:58:23.453Z,19.91
2019-04-03T12:03:25.253Z,22.44
2019-04-03T12:08:28.526Z,21.44
2019-04-03T12:13:30.769Z,20.86
2019-04-03T12:18:34.177Z,20.62
2019-04-03T12:23:38.780Z,20.35
2019-04-03T12:28:39.579Z,20.38
2019-04-03T12:33:52.008Z,20.51
2019-04-03T12:38:44.606Z,20.54
2019-04-03T12:43:46.161Z,21.03
2019-04-03T12:48:48.694Z,21.64
2019-04-03T12:53:51.373Z,22.31
2019-04-03T12:58:53.132Z,22.60
2019-04-03T13:03:56.415Z,22.43
2019-04-03T13:08:58.488Z,21.64
2019-04-03T13:14:00.376Z,21.09
2019-04-03T13:19:02.075Z,22.75
2019-04-03T13:24:04.195Z,23.48
2019-04-03T13:29:08.179Z,23.72
2019-04-03T13:34:11.167Z,23.49
2019-04-03T13:39:12.907Z,23.26
2019-04-03T13:44:33.959Z,23.10
2019-04-03T13:49:35.686Z,23.13
2019-04-03T13:54:37.241Z,23.27
2019-04-03T13:59:38.767Z,23.06
2019-04-03T14:04:40.318Z,21.64
2019-04-03T14:09:41.942Z,20.93
2019-04-03T14:14:46.777Z,20.79
2019-04-03T14:19:50.888Z,20.90
2019-04-03T14:24:52.573Z,22.95
2019-04-03T14:29:54.322Z,23.32
2019-04-03T14:35:05.218Z,23.46
2019-04-03T14:39:59.513Z,23.80
2019-04-03T14:45:01.351Z,22.31
2019-04-03T14:50:05.284Z,21.72
2019-04-03T14:55:17.684Z,21.77
2019-04-03T15:00:24.595Z,21.83
2019-04-03T15:05:14.955Z,22.21
2019-04-03T15:10:16.834Z,21.69
2019-04-03T15:15:18.518Z,22.44
2019-04-03T15:20:20.967Z,23.16
2019-04-03T15:25:22.666Z,23.33
2019-04-03T15:30:25.460Z,23.49
2019-04-03T15:35:27.810Z,24.49
2019-04-03T15:40:29.921Z,24.17
2019-04-03T15:45:32.040Z,21.90
2019-04-03T15:50:37.581Z,22.66
2019-04-03T15:55:39.038Z,24.35
2019-04-03T16:00:42.809Z,24.52
2019-04-03T16:05:44.424Z,21.86
2019-04-03T16:10:46.303Z,20.69
2019-04-03T16:15:47.861Z,20.62
2019-04-03T16:20:50.319Z,20.61
2019-04-03T16:25:52.425Z,20.19
2019-04-03T16:30:54.531Z,19.54
2019-04-03T16:35:56.217Z,19.01
2019-04-03T16:40:58.083Z,18.66
2019-04-03T16:45:59.941Z,18.35
2019-04-03T16:51:01.620Z,18.08
2019-04-03T16:56:05.881Z,17.97
2019-04-03T17:01:06.886Z,17.99
2019-04-03T17:06:08.454Z,18.37
2019-04-03T17:11:12.083Z,18.22
2019-04-03T17:16:15.088Z,17.91
2019-04-03T17:21:17.024Z,17.79
2019-04-03T17:26:18.586Z,17.65
2019-04-03T17:31:22.901Z,17.50
2019-04-03T17:36:23.599Z,17.32
2019-04-03T17:41:25.160Z,17.17
2019-04-03T17:46:26.716Z,17.10
2019-04-03T17:51:28.272Z,16.94
2019-04-03T17:56:29.830Z,16.79
2019-04-03T18:01:31.419Z,16.67
2019-04-03T18:06:32.968Z,16.57
2019-04-03T18:11:34.505Z,16.50
2019-04-03T18:16:36.065Z,16.40
2019-04-03T18:21:37.632Z,16.31
2019-04-03T18:26:39.179Z,16.22
2019-04-03T18:31:40.739Z,16.13
2019-04-03T18:36:42.278Z,16.08
2019-04-03T18:41:43.846Z,16.04
2019-04-03T18:46:45.406Z,16.00
2019-04-03T18:51:46.978Z,15.93
2019-04-03T18:56:48.529Z,15.84
2019-04-03T19:01:50.062Z,15.73
2019-04-03T19:06:51.743Z,15.73
2019-04-03T19:11:53.394Z,15.69
2019-04-03T19:16:54.958Z,15.65
2019-04-03T19:21:56.629Z,15.63
2019-04-03T19:26:58.174Z,15.61
2019-04-03T19:31:59.736Z,15.56
2019-04-03T19:37:03.605Z,15.50
2019-04-03T19:42:04.723Z,15.44
2019-04-03T19:47:06.261Z,15.38
2019-04-03T19:52:08.401Z,15.33
2019-04-03T19:57:10.063Z,15.31
2019-04-03T20:02:11.625Z,15.33
2019-04-03T20:07:13.264Z,15.31
2019-04-03T20:12:14.797Z,15.27
2019-04-03T20:17:16.332Z,15.28
2019-04-03T20:22:17.917Z,15.34
2019-04-03T20:27:19.473Z,15.40
2019-04-03T20:32:21.217Z,15.38
2019-04-03T20:37:25.745Z,15.35
2019-04-03T20:42:27.033Z,15.35
2019-04-03T20:47:28.566Z,15.31
2019-04-03T20:52:30.111Z,15.27
2019-04-03T20:57:33.344Z,15.22
2019-04-03T21:02:35.096Z,15.17
2019-04-03T21:07:36.631Z,15.12
2019-04-03T21:12:38.178Z,15.08
2019-04-03T21:17:39.819Z,15.04
2019-04-03T21:22:41.430Z,15.02
2019-04-03T21:27:42.971Z,14.98
2019-04-03T21:32:44.520Z,14.88
2019-04-03T21:37:46.060Z,14.80
2019-04-03T21:42:47.598Z,14.79
2019-04-03T21:47:49.148Z,14.77
2019-04-03T21:52:53.574Z,14.76
2019-04-03T21:57:54.144Z,14.72
2019-04-03T22:02:55.689Z,14.71
2019-04-03T22:07:58.259Z,14.68
2019-04-03T22:13:00.571Z,14.62
2019-04-03T22:18:02.375Z,14.59
2019-04-03T22:23:04.788Z,14.57
2019-04-03T22:28:07.133Z,14.55
2019-04-03T22:33:08.897Z,14.53
2019-04-03T22:38:10.569Z,14.52
2019-04-03T22:43:15.349Z,14.46
2019-04-03T22:48:15.859Z,14.42
2019-04-03T22:53:17.411Z,14.42
2019-04-03T22:58:21.058Z,14.36
2019-04-03T23:03:22.511Z,14.33
2019-04-03T23:08:24.178Z,14.33
2019-04-03T23:13:25.735Z,14.27
2019-04-03T23:18:27.313Z,14.22
2019-04-03T23:23:28.969Z,14.24
2019-04-03T23:28:33.606Z,14.19
2019-04-03T23:33:34.274Z,14.16
2019-04-03T23:38:35.824Z,14.11
2019-04-03T23:43:39.258Z,13.56
2019-04-03T23:48:41.086Z,13.42
2019-04-03T23:53:42.650Z,13.33
2019-04-03T23:58:44.191Z,13.39
